sensor_id;sensor_type;location;lat;lon;timestamp;P1;durP1;ratioP1;P2;durP2;ratioP2
22111;SDS011;11222;50.872;4.312;2023-01-08T00:01:28;8.52;;;3.85;;
22111;SDS011;11222;50.872;4.312;2023-01-08T00:03:54;9.32;;;4.10;;
22111;SDS011;11222;50.872;4.312;2023-01-08T00:06:20;3.53;;;2.20;;
22111;SDS011;11222;50.872;4.312;2023-01-08T00:08:46;3.65;;;1.50;;
22111;SDS011;11222;50.872;4.312;2023-01-08T00:11:12;3.28;;;1.50;;
22111;SDS011;11222;50.872;4.312;2023-01-08T00:13:38;2.75;;;1.27;;
22111;SDS011;11222;50.872;4.312;2023-01-08T00:16:05;2.13;;;1.15;;
22111;SDS011;11222;50.872;4.312;2023-01-08T00:18:41;3.30;;;1.20;;
22111;SDS011;11222;50.872;4.312;2023-01-08T00:21:14;4.43;;;1.40;;
22111;SDS011;11222;50.872;4.312;2023-01-08T00:23:39;2.90;;;1.20;;
22111;SDS011;11222;50.872;4.312;2023-01-08T00:26:07;3.88;;;1.70;;
22111;SDS011;11222;50.872;4.312;2023-01-08T00:28:34;7.63;;;1.70;;
22111;SDS011;11222;50.872;4.312;2023-01-08T00:31:04;3.70;;;1.50;;
22111;SDS011;11222;50.872;4.312;2023-01-08T00:33:34;3.63;;;1.40;;
22111;SDS011;11222;50.872;4.312;2023-01-08T00:36:05;5.78;;;1.63;;
22111;SDS011;11222;50.872;4.312;2023-01-08T00:38:32;5.20;;;1.50;;
22111;SDS011;11222;50.872;4.312;2023-01-08T00:40:58;3.70;;;1.40;;
22111;SDS011;11222;50.872;4.312;2023-01-08T00:43:24;6.32;;;1.30;;
22111;SDS011;11222;50.872;4.312;2023-01-08T00:45:50;5.22;;;1.40;;
22111;SDS011;11222;50.872;4.312;2023-01-08T00:48:17;5.25;;;1.42;;
22111;SDS011;11222;50.872;4.312;2023-01-08T00:50:43;3.00;;;1.35;;
22111;SDS011;11222;50.872;4.312;2023-01-08T00:53:09;5.47;;;1.77;;
22111;SDS011;11222;50.872;4.312;2023-01-08T00:55:35;4.45;;;1.50;;
22111;SDS011;11222;50.872;4.312;2023-01-08T00:58:00;4.10;;;1.80;;
22111;SDS011;11222;50.872;4.312;2023-01-08T01:00:26;5.00;;;1.75;;
22111;SDS011;11222;50.872;4.312;2023-01-08T01:02:52;7.50;;;1.90;;
22111;SDS011;11222;50.872;4.312;2023-01-08T01:05:18;6.50;;;1.55;;
22111;SDS011;11222;50.872;4.312;2023-01-08T01:07:44;4.38;;;1.50;;
22111;SDS011;11222;50.872;4.312;2023-01-08T01:10:11;4.97;;;1.90;;
22111;SDS011;11222;50.872;4.312;2023-01-08T01:12:38;5.93;;;1.63;;
22111;SDS011;11222;50.872;4.312;2023-01-08T01:15:05;5.40;;;1.83;;
22111;SDS011;11222;50.872;4.312;2023-01-08T01:17:32;4.30;;;1.60;;
22111;SDS011;11222;50.872;4.312;2023-01-08T01:19:59;7.38;;;1.88;;
22111;SDS011;11222;50.872;4.312;2023-01-08T01:22:25;5.28;;;1.70;;
22111;SDS011;11222;50.872;4.312;2023-01-08T01:24:50;5.80;;;1.70;;
22111;SDS011;11222;50.872;4.312;2023-01-08T01:27:16;5.97;;;1.95;;
22111;SDS011;11222;50.872;4.312;2023-01-08T01:29:42;4.47;;;1.67;;
22111;SDS011;11222;50.872;4.312;2023-01-08T01:32:09;6.00;;;1.83;;
22111;SDS011;11222;50.872;4.312;2023-01-08T01:34:35;6.10;;;1.60;;
22111;SDS011;11222;50.872;4.312;2023-01-08T01:37:01;5.18;;;1.60;;
22111;SDS011;11222;50.872;4.312;2023-01-08T01:39:27;3.97;;;1.60;;
22111;SDS011;11222;50.872;4.312;2023-01-08T01:41:53;3.97;;;1.67;;
22111;SDS011;11222;50.872;4.312;2023-01-08T01:44:39;2.25;;;1.30;;
22111;SDS011;11222;50.872;4.312;2023-01-08T01:47:09;9.00;;;2.08;;
22111;SDS011;11222;50.872;4.312;2023-01-08T01:53:31;4.97;;;1.88;;
22111;SDS011;11222;50.872;4.312;2023-01-08T01:55:54;4.47;;;2.53;;
22111;SDS011;11222;50.872;4.312;2023-01-08T01:58:22;5.22;;;2.20;;
22111;SDS011;11222;50.872;4.312;2023-01-08T02:00:50;7.00;;;2.65;;
22111;SDS011;11222;50.872;4.312;2023-01-08T02:03:20;5.35;;;2.47;;
22111;SDS011;11222;50.872;4.312;2023-01-08T02:08:41;5.40;;;2.50;;
22111;SDS011;11222;50.872;4.312;2023-01-08T02:11:15;7.55;;;2.60;;
22111;SDS011;11222;50.872;4.312;2023-01-08T02:13:59;4.97;;;2.57;;
22111;SDS011;11222;50.872;4.312;2023-01-08T02:16:40;9.50;;;2.80;;
22111;SDS011;11222;50.872;4.312;2023-01-08T02:24:55;5.03;;;2.67;;
22111;SDS011;11222;50.872;4.312;2023-01-08T02:27:41;6.07;;;2.65;;
22111;SDS011;11222;50.872;4.312;2023-01-08T02:30:09;8.55;;;2.88;;
22111;SDS011;11222;50.872;4.312;2023-01-08T02:32:37;5.45;;;2.65;;
22111;SDS011;11222;50.872;4.312;2023-01-08T02:35:05;6.97;;;2.78;;
22111;SDS011;11222;50.872;4.312;2023-01-08T02:37:31;6.65;;;2.58;;
22111;SDS011;11222;50.872;4.312;2023-01-08T02:42:45;3.78;;;2.00;;
22111;SDS011;11222;50.872;4.312;2023-01-08T02:48:00;5.90;;;2.20;;
22111;SDS011;11222;50.872;4.312;2023-01-08T02:53:10;2.75;;;1.95;;
22111;SDS011;11222;50.872;4.312;2023-01-08T02:55:43;2.28;;;1.80;;
22111;SDS011;11222;50.872;4.312;2023-01-08T02:58:18;4.63;;;1.52;;
22111;SDS011;11222;50.872;4.312;2023-01-08T03:00:47;2.22;;;1.70;;
22111;SDS011;11222;50.872;4.312;2023-01-08T03:03:18;3.65;;;1.63;;
22111;SDS011;11222;50.872;4.312;2023-01-08T03:05:57;2.78;;;1.75;;
22111;SDS011;11222;50.872;4.312;2023-01-08T03:08:38;2.20;;;1.70;;
22111;SDS011;11222;50.872;4.312;2023-01-08T03:11:09;3.60;;;2.03;;
22111;SDS011;11222;50.872;4.312;2023-01-08T03:13:37;2.67;;;2.00;;
22111;SDS011;11222;50.872;4.312;2023-01-08T03:16:31;4.75;;;2.10;;
22111;SDS011;11222;50.872;4.312;2023-01-08T03:19:27;4.78;;;1.90;;
22111;SDS011;11222;50.872;4.312;2023-01-08T03:22:00;3.08;;;2.03;;
22111;SDS011;11222;50.872;4.312;2023-01-08T03:24:28;4.03;;;2.17;;
22111;SDS011;11222;50.872;4.312;2023-01-08T03:26:58;5.95;;;2.30;;
22111;SDS011;11222;50.872;4.312;2023-01-08T03:29:28;5.97;;;2.00;;
22111;SDS011;11222;50.872;4.312;2023-01-08T03:31:58;4.10;;;2.25;;
22111;SDS011;11222;50.872;4.312;2023-01-08T03:34:27;4.07;;;2.15;;
22111;SDS011;11222;50.872;4.312;2023-01-08T03:36:56;6.97;;;2.30;;
22111;SDS011;11222;50.872;4.312;2023-01-08T03:39:33;4.13;;;2.08;;
22111;SDS011;11222;50.872;4.312;2023-01-08T03:42:12;7.55;;;2.45;;
22111;SDS011;11222;50.872;4.312;2023-01-08T03:44:40;7.20;;;1.80;;
22111;SDS011;11222;50.872;4.312;2023-01-08T03:47:13;6.93;;;2.22;;
22111;SDS011;11222;50.872;4.312;2023-01-08T03:49:39;3.95;;;1.58;;
22111;SDS011;11222;50.872;4.312;2023-01-08T03:52:07;5.68;;;2.05;;
22111;SDS011;11222;50.872;4.312;2023-01-08T03:54:34;6.90;;;2.40;;
22111;SDS011;11222;50.872;4.312;2023-01-08T03:57:01;7.45;;;1.70;;
22111;SDS011;11222;50.872;4.312;2023-01-08T03:59:27;9.63;;;2.20;;
22111;SDS011;11222;50.872;4.312;2023-01-08T04:01:53;7.90;;;1.80;;
22111;SDS011;11222;50.872;4.312;2023-01-08T04:04:19;4.40;;;1.50;;
22111;SDS011;11222;50.872;4.312;2023-01-08T04:06:44;8.38;;;2.10;;
22111;SDS011;11222;50.872;4.312;2023-01-08T04:09:10;4.68;;;1.77;;
22111;SDS011;11222;50.872;4.312;2023-01-08T04:11:36;12.13;;;2.50;;
22111;SDS011;11222;50.872;4.312;2023-01-08T04:14:01;8.10;;;2.20;;
22111;SDS011;11222;50.872;4.312;2023-01-08T04:16:27;7.55;;;1.83;;
22111;SDS011;11222;50.872;4.312;2023-01-08T04:18:53;5.45;;;1.85;;
22111;SDS011;11222;50.872;4.312;2023-01-08T04:21:18;12.88;;;2.35;;
22111;SDS011;11222;50.872;4.312;2023-01-08T04:23:44;6.30;;;1.90;;
22111;SDS011;11222;50.872;4.312;2023-01-08T04:26:11;8.45;;;2.40;;
22111;SDS011;11222;50.872;4.312;2023-01-08T04:28:36;8.43;;;2.15;;
22111;SDS011;11222;50.872;4.312;2023-01-08T04:31:06;9.77;;;2.40;;
22111;SDS011;11222;50.872;4.312;2023-01-08T04:33:32;9.07;;;2.08;;
22111;SDS011;11222;50.872;4.312;2023-01-08T04:35:59;10.23;;;2.40;;
22111;SDS011;11222;50.872;4.312;2023-01-08T04:38:24;11.80;;;2.55;;
22111;SDS011;11222;50.872;4.312;2023-01-08T04:40:54;10.23;;;2.47;;
22111;SDS011;11222;50.872;4.312;2023-01-08T04:43:21;9.13;;;2.20;;
22111;SDS011;11222;50.872;4.312;2023-01-08T04:45:47;10.30;;;2.20;;
22111;SDS011;11222;50.872;4.312;2023-01-08T04:48:13;7.85;;;2.30;;
22111;SDS011;11222;50.872;4.312;2023-01-08T04:50:38;6.55;;;2.20;;
22111;SDS011;11222;50.872;4.312;2023-01-08T04:53:04;9.65;;;2.50;;
22111;SDS011;11222;50.872;4.312;2023-01-08T04:55:30;9.73;;;2.30;;
22111;SDS011;11222;50.872;4.312;2023-01-08T04:57:55;7.97;;;2.08;;
22111;SDS011;11222;50.872;4.312;2023-01-08T05:00:21;10.55;;;2.33;;
22111;SDS011;11222;50.872;4.312;2023-01-08T05:02:47;12.80;;;2.42;;
22111;SDS011;11222;50.872;4.312;2023-01-08T05:05:13;10.18;;;2.00;;
22111;SDS011;11222;50.872;4.312;2023-01-08T05:07:38;11.88;;;2.33;;
22111;SDS011;11222;50.872;4.312;2023-01-08T05:10:04;8.43;;;1.90;;
22111;SDS011;11222;50.872;4.312;2023-01-08T05:12:30;6.03;;;1.70;;
22111;SDS011;11222;50.872;4.312;2023-01-08T05:14:56;9.52;;;2.05;;
22111;SDS011;11222;50.872;4.312;2023-01-08T05:17:21;11.77;;;2.08;;
22111;SDS011;11222;50.872;4.312;2023-01-08T05:19:47;10.10;;;1.98;;
22111;SDS011;11222;50.872;4.312;2023-01-08T05:22:13;8.77;;;2.00;;
22111;SDS011;11222;50.872;4.312;2023-01-08T05:24:38;13.23;;;2.17;;
22111;SDS011;11222;50.872;4.312;2023-01-08T05:27:04;11.20;;;2.25;;
22111;SDS011;11222;50.872;4.312;2023-01-08T05:29:30;12.48;;;2.22;;
22111;SDS011;11222;50.872;4.312;2023-01-08T05:31:55;8.70;;;1.90;;
22111;SDS011;11222;50.872;4.312;2023-01-08T05:34:21;11.48;;;2.10;;
22111;SDS011;11222;50.872;4.312;2023-01-08T05:36:47;7.68;;;1.95;;
22111;SDS011;11222;50.872;4.312;2023-01-08T05:39:12;10.02;;;2.55;;
22111;SDS011;11222;50.872;4.312;2023-01-08T05:41:38;10.82;;;2.00;;
22111;SDS011;11222;50.872;4.312;2023-01-08T05:44:04;13.05;;;2.20;;
22111;SDS011;11222;50.872;4.312;2023-01-08T05:46:29;7.75;;;1.85;;
22111;SDS011;11222;50.872;4.312;2023-01-08T05:48:56;8.15;;;2.00;;
22111;SDS011;11222;50.872;4.312;2023-01-08T05:51:21;10.27;;;2.13;;
22111;SDS011;11222;50.872;4.312;2023-01-08T05:53:47;5.15;;;1.83;;
22111;SDS011;11222;50.872;4.312;2023-01-08T05:56:13;8.32;;;1.90;;
22111;SDS011;11222;50.872;4.312;2023-01-08T05:58:39;12.20;;;2.50;;
22111;SDS011;11222;50.872;4.312;2023-01-08T06:01:06;12.00;;;1.98;;
22111;SDS011;11222;50.872;4.312;2023-01-08T06:03:34;11.20;;;2.15;;
22111;SDS011;11222;50.872;4.312;2023-01-08T06:06:01;9.77;;;2.13;;
22111;SDS011;11222;50.872;4.312;2023-01-08T06:08:28;9.68;;;2.15;;
22111;SDS011;11222;50.872;4.312;2023-01-08T06:11:01;9.20;;;2.17;;
22111;SDS011;11222;50.872;4.312;2023-01-08T06:13:30;7.50;;;2.08;;
22111;SDS011;11222;50.872;4.312;2023-01-08T06:15:57;6.28;;;2.00;;
22111;SDS011;11222;50.872;4.312;2023-01-08T06:18:24;6.43;;;1.95;;
22111;SDS011;11222;50.872;4.312;2023-01-08T06:20:51;6.75;;;1.80;;
22111;SDS011;11222;50.872;4.312;2023-01-08T06:23:16;10.38;;;1.90;;
22111;SDS011;11222;50.872;4.312;2023-01-08T06:25:42;9.77;;;2.17;;
22111;SDS011;11222;50.872;4.312;2023-01-08T06:28:08;7.43;;;1.80;;
22111;SDS011;11222;50.872;4.312;2023-01-08T06:30:34;6.90;;;2.17;;
22111;SDS011;11222;50.872;4.312;2023-01-08T06:33:00;6.72;;;1.92;;
22111;SDS011;11222;50.872;4.312;2023-01-08T06:35:26;11.80;;;2.33;;
22111;SDS011;11222;50.872;4.312;2023-01-08T06:37:55;10.40;;;1.80;;
22111;SDS011;11222;50.872;4.312;2023-01-08T06:40:21;11.32;;;2.60;;
22111;SDS011;11222;50.872;4.312;2023-01-08T06:42:47;6.88;;;2.00;;
22111;SDS011;11222;50.872;4.312;2023-01-08T06:45:13;9.50;;;2.30;;
22111;SDS011;11222;50.872;4.312;2023-01-08T06:47:39;9.40;;;1.80;;
22111;SDS011;11222;50.872;4.312;2023-01-08T06:50:05;9.25;;;2.10;;
22111;SDS011;11222;50.872;4.312;2023-01-08T06:52:31;9.73;;;2.40;;
22111;SDS011;11222;50.872;4.312;2023-01-08T06:54:57;11.57;;;2.63;;
22111;SDS011;11222;50.872;4.312;2023-01-08T06:57:22;8.57;;;2.20;;
22111;SDS011;11222;50.872;4.312;2023-01-08T06:59:48;9.88;;;2.08;;
22111;SDS011;11222;50.872;4.312;2023-01-08T07:02:14;8.18;;;2.22;;
22111;SDS011;11222;50.872;4.312;2023-01-08T07:04:41;10.52;;;2.10;;
22111;SDS011;11222;50.872;4.312;2023-01-08T07:07:12;9.88;;;2.20;;
22111;SDS011;11222;50.872;4.312;2023-01-08T07:09:39;10.77;;;1.98;;
22111;SDS011;11222;50.872;4.312;2023-01-08T07:12:12;8.90;;;2.38;;
22111;SDS011;11222;50.872;4.312;2023-01-08T07:14:38;6.95;;;1.90;;
22111;SDS011;11222;50.872;4.312;2023-01-08T07:17:04;10.68;;;2.78;;
22111;SDS011;11222;50.872;4.312;2023-01-08T07:19:30;10.27;;;2.20;;
22111;SDS011;11222;50.872;4.312;2023-01-08T07:21:56;14.48;;;2.88;;
22111;SDS011;11222;50.872;4.312;2023-01-08T07:24:21;9.55;;;2.08;;
22111;SDS011;11222;50.872;4.312;2023-01-08T07:26:47;8.32;;;2.45;;
22111;SDS011;11222;50.872;4.312;2023-01-08T07:29:13;9.80;;;2.80;;
22111;SDS011;11222;50.872;4.312;2023-01-08T07:31:38;8.90;;;2.15;;
22111;SDS011;11222;50.872;4.312;2023-01-08T07:34:04;12.20;;;2.38;;
22111;SDS011;11222;50.872;4.312;2023-01-08T07:36:30;13.20;;;2.90;;
22111;SDS011;11222;50.872;4.312;2023-01-08T07:38:56;8.63;;;2.40;;
22111;SDS011;11222;50.872;4.312;2023-01-08T07:41:21;7.93;;;2.17;;
22111;SDS011;11222;50.872;4.312;2023-01-08T07:43:47;9.73;;;2.58;;
22111;SDS011;11222;50.872;4.312;2023-01-08T07:46:13;9.00;;;2.10;;
22111;SDS011;11222;50.872;4.312;2023-01-08T07:48:40;8.13;;;2.40;;
22111;SDS011;11222;50.872;4.312;2023-01-08T07:51:06;11.73;;;2.97;;
22111;SDS011;11222;50.872;4.312;2023-01-08T07:53:33;11.65;;;2.47;;
22111;SDS011;11222;50.872;4.312;2023-01-08T07:56:00;10.35;;;2.55;;
22111;SDS011;11222;50.872;4.312;2023-01-08T07:58:27;9.57;;;3.05;;
22111;SDS011;11222;50.872;4.312;2023-01-08T08:00:53;9.98;;;3.05;;
22111;SDS011;11222;50.872;4.312;2023-01-08T08:03:19;9.20;;;2.63;;
22111;SDS011;11222;50.872;4.312;2023-01-08T08:05:45;9.40;;;3.40;;
22111;SDS011;11222;50.872;4.312;2023-01-08T08:08:11;9.40;;;2.50;;
22111;SDS011;11222;50.872;4.312;2023-01-08T08:10:37;11.27;;;2.28;;
22111;SDS011;11222;50.872;4.312;2023-01-08T08:13:04;10.02;;;2.50;;
22111;SDS011;11222;50.872;4.312;2023-01-08T08:15:31;7.97;;;2.30;;
22111;SDS011;11222;50.872;4.312;2023-01-08T08:17:58;8.90;;;2.80;;
22111;SDS011;11222;50.872;4.312;2023-01-08T08:20:24;7.85;;;2.35;;
22111;SDS011;11222;50.872;4.312;2023-01-08T08:22:50;8.05;;;2.17;;
22111;SDS011;11222;50.872;4.312;2023-01-08T08:25:16;8.27;;;2.70;;
22111;SDS011;11222;50.872;4.312;2023-01-08T08:27:42;8.88;;;2.40;;
22111;SDS011;11222;50.872;4.312;2023-01-08T08:30:09;12.50;;;2.90;;
22111;SDS011;11222;50.872;4.312;2023-01-08T08:32:36;6.75;;;2.45;;
22111;SDS011;11222;50.872;4.312;2023-01-08T08:35:02;7.78;;;2.78;;
22111;SDS011;11222;50.872;4.312;2023-01-08T08:37:29;9.50;;;2.53;;
22111;SDS011;11222;50.872;4.312;2023-01-08T08:39:55;6.93;;;2.63;;
22111;SDS011;11222;50.872;4.312;2023-01-08T08:42:21;6.03;;;2.38;;
22111;SDS011;11222;50.872;4.312;2023-01-08T08:44:47;5.53;;;2.60;;
22111;SDS011;11222;50.872;4.312;2023-01-08T08:47:12;8.73;;;3.05;;
22111;SDS011;11222;50.872;4.312;2023-01-08T08:49:38;8.15;;;2.70;;
22111;SDS011;11222;50.872;4.312;2023-01-08T08:52:04;6.68;;;2.80;;
22111;SDS011;11222;50.872;4.312;2023-01-08T08:54:30;5.47;;;2.40;;
22111;SDS011;11222;50.872;4.312;2023-01-08T08:56:56;8.48;;;2.45;;
22111;SDS011;11222;50.872;4.312;2023-01-08T08:59:21;5.68;;;2.20;;
22111;SDS011;11222;50.872;4.312;2023-01-08T09:01:47;4.40;;;2.20;;
22111;SDS011;11222;50.872;4.312;2023-01-08T09:04:13;4.75;;;2.17;;
22111;SDS011;11222;50.872;4.312;2023-01-08T09:06:39;5.22;;;2.10;;
22111;SDS011;11222;50.872;4.312;2023-01-08T09:09:04;4.40;;;1.80;;
22111;SDS011;11222;50.872;4.312;2023-01-08T09:11:30;4.30;;;1.88;;
22111;SDS011;11222;50.872;4.312;2023-01-08T09:13:57;2.83;;;1.50;;
22111;SDS011;11222;50.872;4.312;2023-01-08T09:16:23;2.30;;;1.80;;
22111;SDS011;11222;50.872;4.312;2023-01-08T09:18:48;3.30;;;1.88;;
22111;SDS011;11222;50.872;4.312;2023-01-08T09:21:14;4.43;;;2.17;;
22111;SDS011;11222;50.872;4.312;2023-01-08T09:23:40;6.85;;;3.30;;
22111;SDS011;11222;50.872;4.312;2023-01-08T09:26:05;4.05;;;2.60;;
22111;SDS011;11222;50.872;4.312;2023-01-08T09:28:31;2.65;;;1.95;;
22111;SDS011;11222;50.872;4.312;2023-01-08T09:31:01;2.13;;;1.40;;
22111;SDS011;11222;50.872;4.312;2023-01-08T09:33:27;2.10;;;1.30;;
22111;SDS011;11222;50.872;4.312;2023-01-08T09:35:53;2.58;;;1.20;;
22111;SDS011;11222;50.872;4.312;2023-01-08T09:38:19;3.50;;;1.35;;
22111;SDS011;11222;50.872;4.312;2023-01-08T09:43:23;2.95;;;1.60;;
22111;SDS011;11222;50.872;4.312;2023-01-08T09:45:57;2.17;;;1.50;;
22111;SDS011;11222;50.872;4.312;2023-01-08T09:48:35;2.25;;;1.38;;
22111;SDS011;11222;50.872;4.312;2023-01-08T09:51:03;1.50;;;1.40;;
22111;SDS011;11222;50.872;4.312;2023-01-08T09:53:31;1.58;;;1.40;;
22111;SDS011;11222;50.872;4.312;2023-01-08T09:56:01;1.33;;;1.23;;
22111;SDS011;11222;50.872;4.312;2023-01-08T09:58:34;3.70;;;1.58;;
22111;SDS011;11222;50.872;4.312;2023-01-08T10:01:03;2.03;;;1.40;;
22111;SDS011;11222;50.872;4.312;2023-01-08T10:03:35;1.70;;;1.25;;
22111;SDS011;11222;50.872;4.312;2023-01-08T10:06:11;4.47;;;1.48;;
22111;SDS011;11222;50.872;4.312;2023-01-08T10:08:38;4.15;;;1.52;;
22111;SDS011;11222;50.872;4.312;2023-01-08T10:11:04;2.20;;;1.40;;
22111;SDS011;11222;50.872;4.312;2023-01-08T10:13:32;5.15;;;1.90;;
22111;SDS011;11222;50.872;4.312;2023-01-08T10:16:00;3.65;;;1.42;;
22111;SDS011;11222;50.872;4.312;2023-01-08T10:18:30;1.98;;;1.50;;
22111;SDS011;11222;50.872;4.312;2023-01-08T10:20:59;2.55;;;1.60;;
22111;SDS011;11222;50.872;4.312;2023-01-08T10:23:25;3.20;;;1.35;;
22111;SDS011;11222;50.872;4.312;2023-01-08T10:28:22;7.43;;;1.80;;
22111;SDS011;11222;50.872;4.312;2023-01-08T10:30:53;3.72;;;1.80;;
22111;SDS011;11222;50.872;4.312;2023-01-08T10:33:24;4.35;;;1.42;;
22111;SDS011;11222;50.872;4.312;2023-01-08T10:35:58;8.57;;;1.95;;
22111;SDS011;11222;50.872;4.312;2023-01-08T10:39:01;5.32;;;1.67;;
22111;SDS011;11222;50.872;4.312;2023-01-08T10:41:21;7.25;;;1.95;;
22111;SDS011;11222;50.872;4.312;2023-01-08T10:43:52;5.35;;;2.08;;
22111;SDS011;11222;50.872;4.312;2023-01-08T10:46:23;4.72;;;1.73;;
22111;SDS011;11222;50.872;4.312;2023-01-08T10:48:56;5.53;;;2.28;;
22111;SDS011;11222;50.872;4.312;2023-01-08T10:51:25;8.13;;;1.90;;
22111;SDS011;11222;50.872;4.312;2023-01-08T10:53:54;3.85;;;1.92;;
22111;SDS011;11222;50.872;4.312;2023-01-08T10:56:24;4.43;;;1.52;;
22111;SDS011;11222;50.872;4.312;2023-01-08T10:58:55;6.15;;;1.80;;
22111;SDS011;11222;50.872;4.312;2023-01-08T11:01:24;5.82;;;1.70;;
22111;SDS011;11222;50.872;4.312;2023-01-08T11:03:54;3.55;;;1.60;;
22111;SDS011;11222;50.872;4.312;2023-01-08T11:06:25;3.55;;;1.98;;
22111;SDS011;11222;50.872;4.312;2023-01-08T11:08:57;5.40;;;1.90;;
22111;SDS011;11222;50.872;4.312;2023-01-08T11:11:31;5.70;;;2.08;;
22111;SDS011;11222;50.872;4.312;2023-01-08T11:14:02;9.38;;;1.83;;
22111;SDS011;11222;50.872;4.312;2023-01-08T11:16:34;4.97;;;1.92;;
22111;SDS011;11222;50.872;4.312;2023-01-08T11:19:02;3.42;;;1.70;;
22111;SDS011;11222;50.872;4.312;2023-01-08T11:21:30;4.32;;;2.15;;
22111;SDS011;11222;50.872;4.312;2023-01-08T11:26:49;8.35;;;2.03;;
22111;SDS011;11222;50.872;4.312;2023-01-08T11:29:20;3.95;;;1.60;;
22111;SDS011;11222;50.872;4.312;2023-01-08T11:35:09;6.30;;;2.53;;
22111;SDS011;11222;50.872;4.312;2023-01-08T11:37:56;8.63;;;1.92;;
22111;SDS011;11222;50.872;4.312;2023-01-08T11:43:20;8.40;;;2.25;;
22111;SDS011;11222;50.872;4.312;2023-01-08T11:46:10;8.10;;;2.22;;
22111;SDS011;11222;50.872;4.312;2023-01-08T11:54:41;4.88;;;2.10;;
22111;SDS011;11222;50.872;4.312;2023-01-08T12:02:59;8.10;;;2.70;;
22111;SDS011;11222;50.872;4.312;2023-01-08T12:16:59;4.88;;;2.42;;
22111;SDS011;11222;50.872;4.312;2023-01-08T12:19:49;5.97;;;2.00;;
22111;SDS011;11222;50.872;4.312;2023-01-08T12:22:28;6.75;;;2.30;;
22111;SDS011;11222;50.872;4.312;2023-01-08T12:36:45;6.25;;;1.92;;
22111;SDS011;11222;50.872;4.312;2023-01-08T12:39:22;4.72;;;1.98;;
22111;SDS011;11222;50.872;4.312;2023-01-08T12:41:52;9.27;;;2.27;;
22111;SDS011;11222;50.872;4.312;2023-01-08T12:44:25;9.50;;;2.42;;
22111;SDS011;11222;50.872;4.312;2023-01-08T12:46:54;6.95;;;2.70;;
22111;SDS011;11222;50.872;4.312;2023-01-08T12:49:32;9.82;;;2.65;;
22111;SDS011;11222;50.872;4.312;2023-01-08T12:52:17;7.88;;;2.78;;
22111;SDS011;11222;50.872;4.312;2023-01-08T12:54:52;6.70;;;3.00;;
22111;SDS011;11222;50.872;4.312;2023-01-08T12:57:28;5.72;;;2.20;;
22111;SDS011;11222;50.872;4.312;2023-01-08T13:00:03;7.70;;;2.20;;
22111;SDS011;11222;50.872;4.312;2023-01-08T13:07:48;7.53;;;3.13;;
22111;SDS011;11222;50.872;4.312;2023-01-08T13:10:25;5.45;;;2.92;;
22111;SDS011;11222;50.872;4.312;2023-01-08T13:13:00;8.10;;;3.22;;
22111;SDS011;11222;50.872;4.312;2023-01-08T13:15:27;6.75;;;3.80;;
22111;SDS011;11222;50.872;4.312;2023-01-08T13:18:13;7.00;;;2.42;;
22111;SDS011;11222;50.872;4.312;2023-01-08T13:20:42;7.97;;;2.50;;
22111;SDS011;11222;50.872;4.312;2023-01-08T13:23:23;4.10;;;2.30;;
22111;SDS011;11222;50.872;4.312;2023-01-08T13:25:51;9.13;;;2.72;;
22111;SDS011;11222;50.872;4.312;2023-01-08T13:28:27;8.73;;;2.30;;
22111;SDS011;11222;50.872;4.312;2023-01-08T13:33:43;7.80;;;2.08;;
22111;SDS011;11222;50.872;4.312;2023-01-08T13:38:40;5.95;;;2.00;;
22111;SDS011;11222;50.872;4.312;2023-01-08T13:44:38;6.53;;;2.40;;
22111;SDS011;11222;50.872;4.312;2023-01-08T13:47:00;14.00;;;2.65;;
22111;SDS011;11222;50.872;4.312;2023-01-08T13:49:35;6.72;;;2.10;;
22111;SDS011;11222;50.872;4.312;2023-01-08T13:54:54;10.30;;;2.30;;
22111;SDS011;11222;50.872;4.312;2023-01-08T13:57:20;6.82;;;2.42;;
22111;SDS011;11222;50.872;4.312;2023-01-08T14:02:23;4.00;;;1.67;;
22111;SDS011;11222;50.872;4.312;2023-01-08T14:04:49;4.53;;;1.83;;
22111;SDS011;11222;50.872;4.312;2023-01-08T14:07:15;6.55;;;1.95;;
22111;SDS011;11222;50.872;4.312;2023-01-08T14:09:41;11.32;;;2.58;;
22111;SDS011;11222;50.872;4.312;2023-01-08T14:12:11;6.18;;;1.75;;
22111;SDS011;11222;50.872;4.312;2023-01-08T14:14:40;9.35;;;2.10;;
22111;SDS011;11222;50.872;4.312;2023-01-08T14:17:12;6.05;;;2.10;;
22111;SDS011;11222;50.872;4.312;2023-01-08T14:19:41;7.32;;;2.10;;
22111;SDS011;11222;50.872;4.312;2023-01-08T14:22:10;5.82;;;1.90;;
22111;SDS011;11222;50.872;4.312;2023-01-08T14:24:43;6.15;;;2.28;;
22111;SDS011;11222;50.872;4.312;2023-01-08T14:27:19;8.60;;;2.40;;
22111;SDS011;11222;50.872;4.312;2023-01-08T14:29:53;2.55;;;1.77;;
22111;SDS011;11222;50.872;4.312;2023-01-08T14:32:20;3.55;;;1.70;;
22111;SDS011;11222;50.872;4.312;2023-01-08T14:34:52;6.75;;;2.10;;
22111;SDS011;11222;50.872;4.312;2023-01-08T14:37:19;5.97;;;2.00;;
22111;SDS011;11222;50.872;4.312;2023-01-08T14:39:45;7.43;;;2.30;;
22111;SDS011;11222;50.872;4.312;2023-01-08T14:42:35;6.82;;;2.10;;
22111;SDS011;11222;50.872;4.312;2023-01-08T14:45:26;5.55;;;2.50;;
22111;SDS011;11222;50.872;4.312;2023-01-08T14:48:00;6.22;;;2.13;;
22111;SDS011;11222;50.872;4.312;2023-01-08T14:50:40;3.13;;;1.80;;
22111;SDS011;11222;50.872;4.312;2023-01-08T14:53:25;4.05;;;1.98;;
22111;SDS011;11222;50.872;4.312;2023-01-08T14:55:54;9.10;;;2.42;;
22111;SDS011;11222;50.872;4.312;2023-01-08T14:58:25;5.22;;;2.00;;
22111;SDS011;11222;50.872;4.312;2023-01-08T15:00:58;7.55;;;2.15;;
22111;SDS011;11222;50.872;4.312;2023-01-08T15:03:35;5.55;;;2.40;;
22111;SDS011;11222;50.872;4.312;2023-01-08T15:06:06;7.32;;;2.25;;
22111;SDS011;11222;50.872;4.312;2023-01-08T15:08:39;7.78;;;2.50;;
22111;SDS011;11222;50.872;4.312;2023-01-08T15:11:10;8.05;;;2.13;;
22111;SDS011;11222;50.872;4.312;2023-01-08T15:13:47;9.45;;;2.40;;
22111;SDS011;11222;50.872;4.312;2023-01-08T15:16:36;7.40;;;2.40;;
22111;SDS011;11222;50.872;4.312;2023-01-08T15:22:01;6.07;;;2.28;;
22111;SDS011;11222;50.872;4.312;2023-01-08T15:24:31;6.72;;;2.10;;
22111;SDS011;11222;50.872;4.312;2023-01-08T15:27:03;10.07;;;2.70;;
22111;SDS011;11222;50.872;4.312;2023-01-08T15:29:39;6.97;;;3.10;;
22111;SDS011;11222;50.872;4.312;2023-01-08T15:34:43;6.57;;;2.58;;
22111;SDS011;11222;50.872;4.312;2023-01-08T15:37:11;10.02;;;4.40;;
22111;SDS011;11222;50.872;4.312;2023-01-08T15:39:38;9.40;;;2.95;;
22111;SDS011;11222;50.872;4.312;2023-01-08T15:42:49;14.07;;;6.68;;
22111;SDS011;11222;50.872;4.312;2023-01-08T15:45:16;10.02;;;2.92;;
22111;SDS011;11222;50.872;4.312;2023-01-08T15:47:43;9.20;;;3.15;;
22111;SDS011;11222;50.872;4.312;2023-01-08T15:50:09;11.32;;;3.60;;
22111;SDS011;11222;50.872;4.312;2023-01-08T15:52:36;8.43;;;3.47;;
22111;SDS011;11222;50.872;4.312;2023-01-08T15:55:04;7.78;;;3.75;;
22111;SDS011;11222;50.872;4.312;2023-01-08T15:57:30;8.77;;;2.72;;
22111;SDS011;11222;50.872;4.312;2023-01-08T15:59:56;13.18;;;3.47;;
22111;SDS011;11222;50.872;4.312;2023-01-08T16:02:23;6.05;;;2.15;;
22111;SDS011;11222;50.872;4.312;2023-01-08T16:04:52;9.48;;;2.83;;
22111;SDS011;11222;50.872;4.312;2023-01-08T16:07:18;7.55;;;2.40;;
22111;SDS011;11222;50.872;4.312;2023-01-08T16:09:44;9.07;;;2.88;;
22111;SDS011;11222;50.872;4.312;2023-01-08T16:12:10;9.18;;;2.65;;
22111;SDS011;11222;50.872;4.312;2023-01-08T16:14:36;7.53;;;2.45;;
22111;SDS011;11222;50.872;4.312;2023-01-08T16:17:02;10.07;;;2.90;;
22111;SDS011;11222;50.872;4.312;2023-01-08T16:19:29;8.07;;;2.80;;
22111;SDS011;11222;50.872;4.312;2023-01-08T16:21:56;9.55;;;2.80;;
22111;SDS011;11222;50.872;4.312;2023-01-08T16:24:22;6.32;;;2.70;;
22111;SDS011;11222;50.872;4.312;2023-01-08T16:26:48;9.80;;;2.80;;
22111;SDS011;11222;50.872;4.312;2023-01-08T16:29:14;6.38;;;2.47;;
22111;SDS011;11222;50.872;4.312;2023-01-08T16:31:43;9.48;;;3.00;;